Time;durP1;ratioP1;P1;durP2;ratioP2;P2;SDS_P1;SDS_P2;PMS_P1;PMS_P2;Temp;Humidity;BMP_temperature;BMP_pressure;BME280_temperature;BME280_humidity;BME280_pressure;Samples;Min_cycle;Max_cycle;Signal;HPM_P1;HPM_P2
2023/03/31 00:00:56;;;;;;;14.45;2.30;;;11.40;99.90;;;;;;5010761;28;20677;-68
2023/03/31 00:03:25;;;;;;;11.63;2.53;;;11.30;99.90;;;;;;5034738;28;20245;-67
2023/03/31 00:05:57;;;;;;;13.48;3.22;;;11.40;99.90;;;;;;5002868;28;20205;-67
2023/03/31 00:08:24;;;;;;;12.73;2.80;;;11.40;99.90;;;;;;5028936;28;20717;-67
2023/03/31 00:10:51;;;;;;;10.57;2.80;;;11.40;99.90;;;;;;5019940;28;21470;-67
2023/03/31 00:13:17;;;;;;;13.95;2.75;;;11.30;99.90;;;;;;4994175;28;20345;-67
2023/03/31 00:15:44;;;;;;;9.35;2.88;;;11.40;99.90;;;;;;5021771;28;20205;-67
2023/03/31 00:18:11;;;;;;;10.20;3.30;;;11.30;99.90;;;;;;5028855;28;21037;-67
2023/03/31 00:20:41;;;;;;;7.65;2.65;;;11.30;99.90;;;;;;5027835;28;20218;-68
2023/03/31 00:23:09;;;;;;;16.10;2.97;;;11.30;99.90;;;;;;5015427;28;20328;-68
2023/03/31 00:25:39;;;;;;;7.28;1.98;;;11.30;99.90;;;;;;5033161;28;20329;-68
2023/03/31 00:28:06;;;;;;;17.75;3.08;;;11.30;99.90;;;;;;5007140;28;21762;-68
2023/03/31 00:30:33;;;;;;;11.57;2.90;;;11.40;99.90;;;;;;5053868;28;20198;-68
2023/03/31 00:33:00;;;;;;;9.57;2.88;;;11.40;99.90;;;;;;5038813;28;20208;-68
2023/03/31 00:35:27;;;;;;;7.45;2.35;;;11.40;99.90;;;;;;5044016;28;20201;-68
2023/03/31 00:37:56;;;;;;;12.60;3.28;;;11.30;99.90;;;;;;5031412;28;20208;-67
2023/03/31 00:40:23;;;;;;;11.98;2.70;;;11.30;99.90;;;;;;5034479;28;20204;-68
2023/03/31 00:42:50;;;;;;;11.60;2.65;;;11.30;99.90;;;;;;5029132;28;20212;-68
2023/03/31 00:45:29;;;;;;;10.82;3.17;;;11.30;99.90;;;;;;5019062;28;20204;-67
2023/03/31 00:48:03;;;;;;;9.48;2.67;;;11.30;99.90;;;;;;5037289;28;20200;-68
2023/03/31 00:50:34;;;;;;;11.60;2.45;;;11.20;99.90;;;;;;5032441;28;20609;-68
2023/03/31 00:53:07;;;;;;;8.85;3.20;;;11.20;99.90;;;;;;5023312;28;20200;-67
2023/03/31 00:55:37;;;;;;;10.60;3.03;;;11.30;99.90;;;;;;5034988;28;20200;-68
2023/03/31 00:58:07;;;;;;;13.93;3.05;;;11.20;99.90;;;;;;5029758;28;20800;-67
2023/03/31 01:00:33;;;;;;;10.88;2.85;;;11.20;99.90;;;;;;5000845;28;20213;-67
2023/03/31 01:03:05;;;;;;;14.73;3.33;;;11.20;99.90;;;;;;5036849;28;20208;-67
2023/03/31 01:05:36;;;;;;;13.40;3.17;;;11.20;99.90;;;;;;5035547;28;20209;-67
2023/03/31 01:08:05;;;;;;;9.90;2.67;;;11.30;99.90;;;;;;5020007;28;20501;-67
2023/03/31 01:10:40;;;;;;;8.85;2.30;;;11.20;99.90;;;;;;5031041;28;20224;-67
2023/03/31 01:13:09;;;;;;;12.00;2.40;;;11.30;99.90;;;;;;5035230;28;20196;-67
2023/03/31 01:15:36;;;;;;;11.90;2.72;;;11.30;99.90;;;;;;5041207;28;20193;-67
2023/03/31 01:18:03;;;;;;;9.57;2.47;;;11.30;99.90;;;;;;4996258;28;20435;-68
2023/03/31 01:20:40;;;;;;;14.10;2.83;;;11.30;99.90;;;;;;5037916;28;20340;-67
2023/03/31 01:23:33;;;;;;;11.60;3.13;;;11.30;99.90;;;;;;5012507;28;20424;-67
2023/03/31 01:26:41;;;;;;;10.68;2.20;;;11.20;99.90;;;;;;5027911;28;20212;-67
2023/03/31 01:29:20;;;;;;;8.13;2.25;;;11.20;99.90;;;;;;5029890;28;20433;-67
2023/03/31 01:32:20;;;;;;;9.43;2.63;;;11.20;99.90;;;;;;5023592;28;20200;-68
2023/03/31 01:35:35;;;;;;;9.82;2.40;;;11.20;99.90;;;;;;5016713;28;20289;-67
2023/03/31 01:38:43;;;;;;;13.02;2.50;;;11.20;99.90;;;;;;5004484;28;20272;-67
2023/03/31 01:41:29;;;;;;;12.52;2.80;;;11.20;99.90;;;;;;4981773;28;20206;-67
2023/03/31 01:44:05;;;;;;;8.27;2.72;;;11.20;99.90;;;;;;5017734;28;20205;-67
2023/03/31 01:46:35;;;;;;;7.85;2.60;;;11.20;99.90;;;;;;5035854;28;20207;-68
2023/03/31 01:49:13;;;;;;;10.13;3.08;;;11.20;99.90;;;;;;5007528;28;20224;-67
2023/03/31 01:51:50;;;;;;;11.15;2.47;;;11.20;99.90;;;;;;5027696;28;20196;-67
2023/03/31 01:54:22;;;;;;;7.68;2.58;;;11.20;99.90;;;;;;5016059;28;20722;-68
2023/03/31 01:56:53;;;;;;;12.07;2.47;;;11.20;99.90;;;;;;5033043;28;20872;-68
2023/03/31 01:59:27;;;;;;;16.83;3.38;;;11.30;99.90;;;;;;5030510;28;21144;-67
2023/03/31 02:01:58;;;;;;;10.00;2.55;;;11.10;99.90;;;;;;5016328;28;20317;-67
2023/03/31 02:04:31;;;;;;;9.38;2.20;;;11.10;99.90;;;;;;5017903;28;20212;-68
2023/03/31 02:07:02;;;;;;;9.82;2.10;;;11.10;99.90;;;;;;5015730;28;20214;-67
2023/03/31 02:09:33;;;;;;;10.00;2.42;;;11.10;99.90;;;;;;5021554;28;20317;-67
2023/03/31 02:12:05;;;;;;;9.57;2.70;;;11.10;99.90;;;;;;5030928;28;20511;-67
2023/03/31 02:14:33;;;;;;;7.43;2.25;;;11.00;99.90;;;;;;5032964;28;20291;-67
2023/03/31 02:17:03;;;;;;;10.32;2.90;;;10.90;99.90;;;;;;5020555;28;21963;-67
2023/03/31 02:19:40;;;;;;;12.27;3.35;;;10.90;99.90;;;;;;5027248;28;20289;-67
2023/03/31 02:22:08;;;;;;;7.25;2.72;;;10.90;99.90;;;;;;5000298;28;20306;-67
2023/03/31 02:24:38;;;;;;;10.52;2.45;;;10.90;99.90;;;;;;5018922;28;20209;-68
2023/03/31 02:27:11;;;;;;;10.85;2.70;;;10.90;99.90;;;;;;5027445;28;20779;-68
2023/03/31 02:29:38;;;;;;;15.98;2.65;;;10.80;99.90;;;;;;5022856;28;20478;-67
2023/03/31 02:32:13;;;;;;;8.18;2.42;;;10.70;99.90;;;;;;5025521;28;20201;-67
2023/03/31 02:34:40;;;;;;;10.73;2.53;;;10.80;99.90;;;;;;5041608;28;20228;-67
2023/03/31 02:37:07;;;;;;;13.95;3.10;;;10.70;99.90;;;;;;5014479;28;20616;-67
2023/03/31 02:39:36;;;;;;;10.93;2.55;;;10.70;99.90;;;;;;5019258;28;20201;-67
2023/03/31 02:42:06;;;;;;;8.75;2.50;;;10.70;99.90;;;;;;5028768;28;20225;-67
2023/03/31 02:44:33;;;;;;;14.00;2.88;;;10.70;99.90;;;;;;5024077;28;20197;-68
2023/03/31 02:47:01;;;;;;;10.35;2.78;;;10.80;99.90;;;;;;5033607;28;21024;-67
2023/03/31 02:49:28;;;;;;;10.38;2.80;;;10.80;99.90;;;;;;5032124;28;20220;-67
2023/03/31 02:52:13;;;;;;;8.52;2.33;;;10.90;99.90;;;;;;5016110;28;21564;-67
2023/03/31 02:55:36;;;;;;;13.18;2.83;;;10.90;99.90;;;;;;5013973;28;20227;-68
2023/03/31 02:58:22;;;;;;;9.65;2.90;;;10.90;99.90;;;;;;5031257;28;20219;-67
2023/03/31 03:01:06;;;;;;;8.98;2.92;;;11.00;99.90;;;;;;5032288;28;20896;-67
2023/03/31 03:03:46;;;;;;;10.45;3.20;;;10.90;99.90;;;;;;5028629;28;20201;-67
2023/03/31 03:06:22;;;;;;;9.27;3.55;;;10.90;99.90;;;;;;5043279;28;20193;-67
2023/03/31 03:09:03;;;;;;;8.63;3.05;;;10.90;99.90;;;;;;5007773;28;20204;-67
2023/03/31 03:11:39;;;;;;;12.05;2.72;;;10.90;99.90;;;;;;5023885;28;20302;-67
2023/03/31 03:14:14;;;;;;;9.60;3.10;;;10.90;99.90;;;;;;5017280;28;20215;-67
2023/03/31 03:16:45;;;;;;;10.48;2.83;;;10.80;99.90;;;;;;4996336;28;20204;-67
2023/03/31 03:19:19;;;;;;;10.55;2.95;;;10.80;99.90;;;;;;5028058;28;20228;-67
2023/03/31 03:21:46;;;;;;;7.80;3.65;;;10.80;99.90;;;;;;5034437;28;20977;-67
2023/03/31 03:24:14;;;;;;;5.07;2.75;;;10.80;99.90;;;;;;4989246;28;23290;-67
2023/03/31 03:26:40;;;;;;;13.10;3.22;;;10.80;99.90;;;;;;5029494;28;20208;-67
2023/03/31 03:29:08;;;;;;;8.02;3.00;;;10.90;99.90;;;;;;5027952;28;20212;-67
2023/03/31 03:31:35;;;;;;;11.35;2.88;;;10.90;99.90;;;;;;5034941;28;20197;-67
2023/03/31 03:34:02;;;;;;;7.68;2.85;;;10.90;99.90;;;;;;5022669;28;20228;-67
2023/03/31 03:36:29;;;;;;;7.82;2.92;;;10.90;99.90;;;;;;5046253;28;20204;-67
2023/03/31 03:38:55;;;;;;;10.30;3.15;;;10.90;99.90;;;;;;5013480;28;20596;-67
2023/03/31 03:41:22;;;;;;;6.78;3.00;;;10.90;99.90;;;;;;5039388;28;20223;-67
2023/03/31 03:43:49;;;;;;;8.02;2.80;;;11.00;99.90;;;;;;5023559;28;20212;-68
2023/03/31 03:46:17;;;;;;;11.30;3.75;;;11.00;99.90;;;;;;5027983;28;20200;-67
2023/03/31 03:48:45;;;;;;;5.72;2.67;;;11.00;99.90;;;;;;5032598;28;20204;-67
2023/03/31 03:51:11;;;;;;;8.88;3.20;;;11.00;99.90;;;;;;5030663;28;20228;-67
2023/03/31 03:53:38;;;;;;;7.28;2.90;;;11.00;99.90;;;;;;5042096;28;20189;-67
2023/03/31 03:56:05;;;;;;;14.13;3.53;;;10.90;99.90;;;;;;5003462;28;20225;-67
2023/03/31 03:58:32;;;;;;;10.57;3.03;;;10.90;99.90;;;;;;5030925;28;20201;-67
2023/03/31 04:00:59;;;;;;;6.68;2.80;;;11.00;99.90;;;;;;5020429;28;20233;-67
2023/03/31 04:03:27;;;;;;;7.35;2.47;;;10.90;99.90;;;;;;5031157;28;20200;-67
2023/03/31 04:05:54;;;;;;;9.63;2.80;;;11.00;99.90;;;;;;5037405;28;20322;-67
2023/03/31 04:08:21;;;;;;;17.10;3.15;;;10.90;99.90;;;;;;5040207;28;20877;-67
2023/03/31 04:10:49;;;;;;;8.30;2.53;;;10.90;99.90;;;;;;5013261;28;20229;-67
2023/03/31 04:13:16;;;;;;;8.55;2.90;;;10.90;99.90;;;;;;5025140;28;20211;-67
2023/03/31 04:15:44;;;;;;;6.72;2.63;;;10.90;99.90;;;;;;5033565;28;20716;-67
2023/03/31 04:18:17;;;;;;;6.78;2.53;;;10.90;99.90;;;;;;5020901;28;20215;-67
2023/03/31 04:20:53;;;;;;;6.85;2.10;;;10.90;99.90;;;;;;5046313;28;20201;-67
2023/03/31 04:23:22;;;;;;;11.77;2.78;;;10.90;99.90;;;;;;5039707;28;20205;-67
2023/03/31 04:25:50;;;;;;;9.13;2.88;;;10.90;99.90;;;;;;5035597;28;20203;-67
2023/03/31 04:28:16;;;;;;;8.48;2.58;;;10.90;99.90;;;;;;5017714;28;20681;-67
2023/03/31 04:30:43;;;;;;;6.72;2.35;;;10.90;99.90;;;;;;5044073;28;20259;-67
2023/03/31 04:33:14;;;;;;;6.30;2.20;;;10.80;99.90;;;;;;5020995;28;20232;-67
2023/03/31 04:35:49;;;;;;;9.90;2.33;;;10.90;99.90;;;;;;5033415;28;20224;-67
2023/03/31 04:38:18;;;;;;;8.02;2.33;;;10.80;99.90;;;;;;5027836;28;21147;-67
2023/03/31 04:40:47;;;;;;;6.35;2.45;;;10.80;99.90;;;;;;5043003;28;20193;-68
2023/03/31 04:43:13;;;;;;;13.73;2.53;;;10.80;99.90;;;;;;5029364;28;20229;-67
2023/03/31 04:45:40;;;;;;;8.75;2.55;;;10.80;99.90;;;;;;5030770;28;20201;-67
2023/03/31 04:48:08;;;;;;;11.40;2.47;;;10.80;99.90;;;;;;5032495;28;20246;-67
2023/03/31 04:50:35;;;;;;;11.48;2.53;;;10.80;99.90;;;;;;5031797;28;20915;-67
2023/03/31 04:53:01;;;;;;;8.40;2.38;;;10.80;99.90;;;;;;5014184;28;20209;-68
2023/03/31 04:55:30;;;;;;;13.98;2.40;;;10.70;99.90;;;;;;5038424;28;20197;-67
2023/03/31 04:57:57;;;;;;;8.23;2.92;;;10.70;99.90;;;;;;5019269;28;20209;-67
2023/03/31 05:00:25;;;;;;;4.28;2.08;;;10.60;99.90;;;;;;5030406;28;20244;-67
2023/03/31 05:02:52;;;;;;;9.70;2.15;;;10.60;99.90;;;;;;5038989;28;20193;-68
2023/03/31 05:05:19;;;;;;;7.22;2.13;;;10.60;99.90;;;;;;5049334;28;20193;-67
2023/03/31 05:07:46;;;;;;;7.78;2.47;;;10.60;99.90;;;;;;5031211;28;20270;-67
2023/03/31 05:10:13;;;;;;;8.40;1.70;;;10.50;99.90;;;;;;5050892;28;20227;-67
2023/03/31 05:12:41;;;;;;;6.78;1.98;;;10.40;99.90;;;;;;5016695;28;20227;-67
2023/03/31 05:15:08;;;;;;;7.57;2.45;;;10.40;99.90;;;;;;5032213;28;20887;-67
2023/03/31 05:17:36;;;;;;;14.93;2.65;;;10.40;99.90;;;;;;5037424;28;20201;-67
2023/03/31 05:20:06;;;;;;;4.57;2.10;;;10.30;99.90;;;;;;5040345;28;20204;-66
2023/03/31 05:22:35;;;;;;;6.38;2.30;;;10.30;99.90;;;;;;5032523;28;20192;-66
2023/03/31 05:25:02;;;;;;;7.78;2.40;;;10.30;99.90;;;;;;5029176;28;20201;-67
2023/03/31 05:27:30;;;;;;;7.97;2.38;;;10.30;99.90;;;;;;5019527;28;20699;-67
2023/03/31 05:29:58;;;;;;;7.68;2.25;;;10.30;99.90;;;;;;5048458;28;20239;-67
2023/03/31 05:32:25;;;;;;;6.70;2.00;;;10.30;99.90;;;;;;5020941;28;20205;-67
2023/03/31 05:34:55;;;;;;;8.77;2.13;;;10.30;99.90;;;;;;5051103;28;20220;-67
2023/03/31 05:37:24;;;;;;;5.18;2.22;;;10.30;99.90;;;;;;5032068;28;20226;-66
2023/03/31 05:39:51;;;;;;;12.63;2.55;;;10.30;99.90;;;;;;5038316;28;20201;-66
2023/03/31 05:42:18;;;;;;;4.80;2.00;;;10.30;99.90;;;;;;5018826;28;21443;-66
2023/03/31 05:44:45;;;;;;;10.60;2.40;;;10.40;99.90;;;;;;5050350;28;20766;-66
2023/03/31 05:47:13;;;;;;;8.65;2.38;;;10.40;99.90;;;;;;5028163;28;20455;-67
2023/03/31 05:49:40;;;;;;;7.50;2.65;;;10.40;99.90;;;;;;5035806;28;20229;-66
2023/03/31 05:52:07;;;;;;;6.45;2.40;;;10.40;99.90;;;;;;5034436;28;20236;-67
2023/03/31 05:54:34;;;;;;;6.28;2.30;;;10.70;99.90;;;;;;5037153;28;20216;-66
2023/03/31 05:57:01;;;;;;;6.20;2.35;;;10.70;99.90;;;;;;5032490;28;20205;-67
2023/03/31 05:59:28;;;;;;;8.00;2.53;;;10.70;99.90;;;;;;5023473;28;20201;-67
2023/03/31 06:01:55;;;;;;;9.57;2.33;;;10.60;99.90;;;;;;5028927;28;20205;-67
2023/03/31 06:04:23;;;;;;;4.78;2.22;;;10.60;99.90;;;;;;5030895;28;20201;-67
2023/03/31 06:06:50;;;;;;;7.55;2.72;;;10.60;99.90;;;;;;5017230;28;20305;-67
2023/03/31 06:09:17;;;;;;;13.13;3.30;;;10.50;99.90;;;;;;5032511;28;20205;-67
2023/03/31 06:11:44;;;;;;;7.43;3.00;;;10.50;99.90;;;;;;5034492;28;20682;-66
2023/03/31 06:14:10;;;;;;;9.32;3.33;;;10.50;99.90;;;;;;5015430;28;20501;-67
2023/03/31 06:16:37;;;;;;;8.35;3.53;;;10.50;99.90;;;;;;5043492;28;20197;-67
2023/03/31 06:19:04;;;;;;;6.82;3.40;;;10.50;99.90;;;;;;5028854;28;20196;-67
2023/03/31 06:21:33;;;;;;;9.50;3.72;;;10.50;99.90;;;;;;5038841;28;20213;-67
2023/03/31 06:23:59;;;;;;;7.32;3.67;;;10.50;99.90;;;;;;5030462;28;20216;-67
2023/03/31 06:26:27;;;;;;;10.25;4.75;;;10.60;99.90;;;;;;5039384;28;20206;-67
2023/03/31 06:28:54;;;;;;;9.43;4.07;;;10.50;99.90;;;;;;5026678;28;20193;-67
2023/03/31 06:31:22;;;;;;;12.00;4.45;;;10.50;99.90;;;;;;5018291;28;20653;-67
2023/03/31 06:33:50;;;;;;;7.60;4.63;;;10.50;99.90;;;;;;5032122;28;20468;-67
2023/03/31 06:36:19;;;;;;;8.77;5.03;;;10.60;99.90;;;;;;5025236;28;20205;-67
2023/03/31 06:38:47;;;;;;;8.75;4.65;;;10.50;99.90;;;;;;5034647;28;20209;-68
2023/03/31 06:41:16;;;;;;;8.40;4.65;;;10.50;99.90;;;;;;5032549;28;20201;-68
2023/03/31 06:43:42;;;;;;;9.63;4.97;;;10.50;99.90;;;;;;5021577;28;20578;-67
2023/03/31 06:46:09;;;;;;;14.60;5.10;;;10.50;99.90;;;;;;5012199;28;21245;-67
2023/03/31 06:48:36;;;;;;;8.27;5.50;;;10.50;99.90;;;;;;5031084;28;20217;-67
2023/03/31 06:51:05;;;;;;;8.20;4.78;;;10.50;99.90;;;;;;5022080;28;20232;-67
2023/03/31 06:53:32;;;;;;;12.20;5.43;;;10.50;99.90;;;;;;5036461;28;20606;-67
2023/03/31 06:56:00;;;;;;;9.93;5.25;;;10.50;99.90;;;;;;5030083;28;20217;-68
2023/03/31 06:58:27;;;;;;;13.07;5.18;;;10.60;99.90;;;;;;5031547;28;20212;-67
2023/03/31 07:00:54;;;;;;;10.40;5.93;;;10.60;99.90;;;;;;5015779;28;20738;-67
2023/03/31 07:03:23;;;;;;;10.55;5.30;;;10.60;99.90;;;;;;5007966;28;20241;-67
2023/03/31 07:05:51;;;;;;;8.50;5.32;;;10.60;99.90;;;;;;5012182;28;24144;-67
2023/03/31 07:08:18;;;;;;;8.45;5.25;;;10.60;99.90;;;;;;5037677;28;20208;-67
2023/03/31 07:10:47;;;;;;;8.57;4.85;;;10.60;99.90;;;;;;5027853;28;20232;-67
2023/03/31 07:13:15;;;;;;;9.32;5.88;;;10.60;99.90;;;;;;5025040;28;20310;-67
2023/03/31 07:15:43;;;;;;;9.52;6.07;;;10.70;99.90;;;;;;5023410;28;20204;-68
2023/03/31 07:18:11;;;;;;;8.07;5.85;;;10.70;99.90;;;;;;5014999;28;20204;-67
2023/03/31 07:20:38;;;;;;;9.43;6.00;;;10.70;99.90;;;;;;5034051;28;20236;-67
2023/03/31 07:23:05;;;;;;;9.55;6.03;;;10.70;99.90;;;;;;5029839;28;20221;-67
2023/03/31 07:25:32;;;;;;;9.85;6.15;;;10.70;99.90;;;;;;5031344;28;20208;-68
2023/03/31 07:27:59;;;;;;;9.43;6.07;;;10.70;99.90;;;;;;5012591;28;20205;-68
2023/03/31 07:30:27;;;;;;;9.70;5.72;;;10.70;99.90;;;;;;5019640;28;20250;-68
2023/03/31 07:32:54;;;;;;;12.00;6.68;;;10.70;99.90;;;;;;5004813;28;20245;-69
2023/03/31 07:35:22;;;;;;;10.45;6.40;;;10.70;99.90;;;;;;5031202;28;20232;-67
2023/03/31 07:37:50;;;;;;;12.93;6.82;;;10.80;99.90;;;;;;5013083;28;20732;-68
2023/03/31 07:40:19;;;;;;;8.25;5.75;;;10.80;99.90;;;;;;5044999;28;20201;-68
2023/03/31 07:42:47;;;;;;;10.27;6.88;;;10.80;99.90;;;;;;5038867;28;20208;-68
2023/03/31 07:45:15;;;;;;;9.43;6.70;;;10.90;99.90;;;;;;5025362;28;20258;-68
2023/03/31 07:47:45;;;;;;;10.82;6.30;;;10.90;99.90;;;;;;5040631;28;20196;-68
2023/03/31 07:50:12;;;;;;;9.18;6.25;;;10.90;99.90;;;;;;5005458;28;20219;-68
2023/03/31 07:52:39;;;;;;;7.25;5.90;;;10.90;99.90;;;;;;5029583;28;20227;-68
2023/03/31 07:55:07;;;;;;;8.32;5.35;;;10.90;99.90;;;;;;5035499;28;20963;-68
2023/03/31 07:57:34;;;;;;;6.70;5.97;;;11.00;99.90;;;;;;5035131;28;20205;-68
2023/03/31 08:00:05;;;;;;;10.30;6.13;;;10.90;99.90;;;;;;5035489;28;21109;-68
2023/03/31 08:02:32;;;;;;;8.48;6.10;;;11.00;99.90;;;;;;5040985;28;20241;-68
2023/03/31 08:05:00;;;;;;;10.98;5.95;;;11.00;99.90;;;;;;5016481;28;20216;-68
2023/03/31 08:07:29;;;;;;;9.15;6.40;;;11.00;99.90;;;;;;5040919;28;20202;-68
2023/03/31 08:09:57;;;;;;;13.45;6.18;;;11.10;99.90;;;;;;5031704;28;20216;-68
2023/03/31 08:12:23;;;;;;;8.32;5.75;;;11.10;99.90;;;;;;5037008;28;21033;-68
2023/03/31 08:14:50;;;;;;;11.45;6.35;;;11.10;99.90;;;;;;5027514;28;20664;-69
2023/03/31 08:17:17;;;;;;;9.60;6.68;;;11.10;99.90;;;;;;5021531;28;20609;-69
2023/03/31 08:19:44;;;;;;;11.02;6.25;;;11.20;99.90;;;;;;5012527;28;20207;-68
2023/03/31 08:22:12;;;;;;;9.55;7.00;;;11.20;99.90;;;;;;5041637;28;20213;-68
2023/03/31 08:24:39;;;;;;;8.73;6.60;;;11.20;99.90;;;;;;5026176;28;20189;-68
2023/03/31 08:27:06;;;;;;;8.68;6.57;;;11.20;99.90;;;;;;5032014;28;20648;-68
2023/03/31 08:29:33;;;;;;;9.38;6.32;;;11.20;99.90;;;;;;5029921;28;20219;-68
2023/03/31 08:31:59;;;;;;;8.35;6.22;;;11.30;99.90;;;;;;5016279;28;20239;-68
2023/03/31 08:34:28;;;;;;;8.05;5.30;;;11.20;99.90;;;;;;5044302;28;22958;-68
2023/03/31 08:36:55;;;;;;;9.25;6.15;;;11.30;99.90;;;;;;5011418;28;20228;-67
2023/03/31 08:39:23;;;;;;;10.27;6.00;;;11.30;99.90;;;;;;5037951;28;20772;-68
2023/03/31 08:41:57;;;;;;;8.75;6.47;;;11.30;99.90;;;;;;5014890;28;20234;-69
2023/03/31 08:44:30;;;;;;;6.82;5.93;;;11.30;99.90;;;;;;5004936;28;20220;-68
2023/03/31 08:47:01;;;;;;;6.85;6.03;;;11.30;99.90;;;;;;5022071;28;20584;-69
2023/03/31 08:49:33;;;;;;;7.28;5.93;;;11.40;99.90;;;;;;5042418;28;20216;-68
2023/03/31 08:52:04;;;;;;;9.75;6.60;;;11.40;99.90;;;;;;5005304;28;20324;-69
2023/03/31 08:54:35;;;;;;;11.40;6.53;;;11.40;99.90;;;;;;5049731;28;20216;-68
2023/03/31 08:57:10;;;;;;;10.18;6.55;;;11.40;99.90;;;;;;5025161;28;21059;-68
2023/03/31 08:59:39;;;;;;;9.52;5.88;;;11.40;99.90;;;;;;5026797;28;20214;-69
2023/03/31 09:02:17;;;;;;;10.25;6.47;;;11.40;99.90;;;;;;5033628;28;20509;-68
2023/03/31 09:05:10;;;;;;;7.78;6.32;;;11.50;99.90;;;;;;5044204;28;20193;-69
2023/03/31 09:07:47;;;;;;;10.60;5.90;;;11.40;99.90;;;;;;4979265;28;20205;-69
2023/03/31 09:10:33;;;;;;;8.63;5.63;;;11.50;99.90;;;;;;5035260;28;20218;-69
2023/03/31 09:13:06;;;;;;;6.57;5.13;;;11.40;99.90;;;;;;5035733;28;20228;-69
2023/03/31 09:15:40;;;;;;;10.30;5.57;;;11.40;99.90;;;;;;5027609;28;20766;-69
2023/03/31 09:18:15;;;;;;;6.25;4.82;;;11.50;99.90;;;;;;5027828;28;20305;-69
2023/03/31 09:20:48;;;;;;;8.10;4.45;;;11.40;99.90;;;;;;5042508;28;20208;-69
2023/03/31 09:23:25;;;;;;;6.35;4.78;;;11.40;99.90;;;;;;5003602;28;21248;-69
2023/03/31 09:25:55;;;;;;;5.80;4.72;;;11.40;99.90;;;;;;5034374;28;20288;-69
2023/03/31 09:28:26;;;;;;;8.43;4.82;;;11.40;99.90;;;;;;5030543;28;20212;-69
2023/03/31 09:30:54;;;;;;;8.38;5.20;;;11.40;99.90;;;;;;5013608;28;21413;-69
2023/03/31 09:33:30;;;;;;;7.25;4.97;;;11.40;99.90;;;;;;5019561;28;20244;-69
2023/03/31 09:35:57;;;;;;;6.25;4.70;;;11.30;99.90;;;;;;5030232;28;20704;-69
2023/03/31 09:38:28;;;;;;;6.55;5.30;;;11.30;99.90;;;;;;4997703;28;20220;-69
2023/03/31 09:40:57;;;;;;;8.93;5.18;;;11.30;99.90;;;;;;5028367;28;20644;-69
2023/03/31 09:43:26;;;;;;;6.40;5.30;;;11.40;99.90;;;;;;5038718;28;20209;-68
2023/03/31 09:45:53;;;;;;;13.73;4.82;;;11.40;99.90;;;;;;5012778;28;20220;-68
2023/03/31 09:48:23;;;;;;;9.07;5.25;;;11.40;99.90;;;;;;5024745;28;20208;-69
2023/03/31 09:50:52;;;;;;;5.95;4.68;;;11.40;99.90;;;;;;5033849;28;20212;-69
2023/03/31 09:53:26;;;;;;;7.10;4.38;;;11.30;99.90;;;;;;5006293;28;20228;-69
2023/03/31 09:56:00;;;;;;;7.28;4.10;;;11.30;99.90;;;;;;5039118;28;20205;-68
2023/03/31 09:58:27;;;;;;;8.23;3.80;;;11.30;99.90;;;;;;5032408;28;20217;-69
2023/03/31 10:01:00;;;;;;;6.70;4.13;;;11.40;99.90;;;;;;5027586;28;20201;-68
2023/03/31 10:03:28;;;;;;;6.40;3.70;;;11.50;99.90;;;;;;5043611;28;20196;-69
2023/03/31 10:05:57;;;;;;;4.53;3.20;;;11.60;99.90;;;;;;5033126;28;20956;-68
2023/03/31 10:08:28;;;;;;;5.90;3.47;;;11.70;99.90;;;;;;5014742;28;20228;-69
2023/03/31 10:11:06;;;;;;;5.70;3.80;;;11.70;99.90;;;;;;5030546;28;20844;-69
2023/03/31 10:13:38;;;;;;;5.00;2.95;;;11.80;99.90;;;;;;5029711;28;20212;-68
2023/03/31 10:16:07;;;;;;;4.40;2.70;;;11.80;99.90;;;;;;5019096;28;20247;-69
2023/03/31 10:18:35;;;;;;;5.63;3.30;;;11.90;99.90;;;;;;5035793;28;20227;-69
2023/03/31 10:21:04;;;;;;;4.65;2.83;;;12.00;99.90;;;;;;5028910;28;20215;-69
2023/03/31 10:23:33;;;;;;;4.55;3.22;;;12.10;99.90;;;;;;5008360;28;20603;-69
2023/03/31 10:26:02;;;;;;;5.25;2.65;;;12.10;99.90;;;;;;5031790;28;21086;-69
2023/03/31 10:28:33;;;;;;;7.32;3.20;;;12.20;99.90;;;;;;5020278;28;20283;-69
2023/03/31 10:31:01;;;;;;;5.38;2.95;;;12.20;99.90;;;;;;5029146;28;20220;-69
2023/03/31 10:33:33;;;;;;;6.45;3.10;;;12.20;99.90;;;;;;5032512;28;20241;-69
2023/03/31 10:36:02;;;;;;;6.88;3.10;;;12.20;99.90;;;;;;5030251;28;20231;-69
2023/03/31 10:38:33;;;;;;;5.85;3.72;;;12.10;99.90;;;;;;5002125;28;20225;-69
2023/03/31 10:41:01;;;;;;;5.95;3.05;;;12.20;99.90;;;;;;5039775;28;20675;-69
2023/03/31 10:43:30;;;;;;;5.50;3.25;;;12.20;99.90;;;;;;5010741;28;20232;-69
2023/03/31 10:45:59;;;;;;;6.22;3.97;;;12.20;99.90;;;;;;5028438;28;20689;-69
2023/03/31 10:48:28;;;;;;;5.60;3.50;;;12.30;99.90;;;;;;5012173;28;20228;-69
2023/03/31 10:50:58;;;;;;;6.75;3.25;;;12.20;99.90;;;;;;5019954;28;20200;-69
2023/03/31 10:53:25;;;;;;;3.30;3.00;;;12.20;99.90;;;;;;4992895;28;20972;-69
2023/03/31 10:56:01;;;;;;;5.88;3.35;;;12.20;99.90;;;;;;5034216;28;20207;-69
2023/03/31 10:58:39;;;;;;;5.20;3.22;;;12.20;99.90;;;;;;5013086;28;20208;-69
2023/03/31 11:01:18;;;;;;;5.45;3.78;;;12.30;99.90;;;;;;5033273;28;20243;-69
2023/03/31 11:04:04;;;;;;;7.90;3.63;;;12.30;99.90;;;;;;5036909;28;20219;-69
2023/03/31 11:06:39;;;;;;;4.78;3.05;;;12.30;99.90;;;;;;5019817;28;20201;-69
2023/03/31 11:09:32;;;;;;;4.68;3.13;;;12.30;99.90;;;;;;5011389;28;20211;-69
2023/03/31 11:12:08;;;;;;;6.25;3.22;;;12.30;99.90;;;;;;5035835;28;22635;-69
2023/03/31 11:14:46;;;;;;;8.00;4.13;;;12.30;99.90;;;;;;5022678;28;20210;-69
2023/03/31 11:17:26;;;;;;;5.88;3.67;;;12.40;99.90;;;;;;5035460;28;20205;-69
2023/03/31 11:20:01;;;;;;;8.57;3.47;;;12.40;99.90;;;;;;5032111;28;20201;-69
2023/03/31 11:22:34;;;;;;;5.63;3.20;;;12.50;99.90;;;;;;5033285;28;20581;-69
2023/03/31 11:25:12;;;;;;;8.38;3.95;;;12.50;99.90;;;;;;5008315;28;20218;-69
2023/03/31 11:27:55;;;;;;;5.60;3.35;;;12.50;99.90;;;;;;5033609;28;20201;-69
2023/03/31 11:30:28;;;;;;;11.82;3.67;;;12.40;99.90;;;;;;5015623;28;20201;-69
2023/03/31 11:33:10;;;;;;;5.78;3.33;;;12.40;99.90;;;;;;5037739;28;20228;-69
2023/03/31 11:36:03;;;;;;;4.43;3.28;;;12.40;99.90;;;;;;5031075;28;20206;-69
2023/03/31 11:38:43;;;;;;;4.85;3.70;;;12.50;99.90;;;;;;5024865;28;20208;-69
2023/03/31 11:41:13;;;;;;;9.48;3.97;;;12.50;99.90;;;;;;5009774;28;20204;-69
2023/03/31 11:43:44;;;;;;;4.10;3.50;;;12.60;99.90;;;;;;5038990;28;20698;-69
2023/03/31 11:46:18;;;;;;;4.38;3.47;;;12.60;99.90;;;;;;5019022;28;20205;-69
2023/03/31 11:48:51;;;;;;;7.20;3.50;;;12.60;99.90;;;;;;5036034;28;20192;-69
2023/03/31 11:51:21;;;;;;;7.05;3.90;;;12.60;99.90;;;;;;5027922;28;20208;-69
2023/03/31 11:53:51;;;;;;;4.25;3.47;;;12.60;99.90;;;;;;5027057;28;20225;-69
2023/03/31 11:56:20;;;;;;;4.63;3.38;;;12.70;99.90;;;;;;4993919;28;20286;-68
2023/03/31 11:58:52;;;;;;;4.50;3.20;;;12.70;99.90;;;;;;5022030;28;20289;-68
2023/03/31 12:01:27;;;;;;;5.00;3.47;;;12.70;99.90;;;;;;5016861;28;20221;-68
2023/03/31 12:04:01;;;;;;;8.35;3.80;;;12.70;99.90;;;;;;5018971;28;20245;-68
2023/03/31 12:06:31;;;;;;;4.50;3.38;;;12.70;99.90;;;;;;5038846;28;21333;-69
2023/03/31 12:09:16;;;;;;;4.95;3.10;;;12.70;99.90;;;;;;5035960;28;20208;-69
2023/03/31 12:11:47;;;;;;;3.22;2.70;;;12.60;99.90;;;;;;5016764;28;20592;-68
2023/03/31 12:14:23;;;;;;;2.50;2.13;;;12.50;99.90;;;;;;5045631;28;20197;-68
2023/03/31 12:16:55;;;;;;;2.55;2.35;;;12.40;99.90;;;;;;5035424;28;20211;-68
2023/03/31 12:19:27;;;;;;;3.83;2.60;;;12.40;99.90;;;;;;5038876;28;20694;-68
2023/03/31 12:22:02;;;;;;;3.55;2.40;;;12.30;99.90;;;;;;5049385;28;20251;-68
2023/03/31 12:24:30;;;;;;;5.40;2.75;;;12.30;99.90;;;;;;5038971;28;20570;-68
2023/03/31 12:27:05;;;;;;;3.03;2.83;;;12.30;99.90;;;;;;5026421;28;20208;-69
2023/03/31 12:29:36;;;;;;;3.40;2.90;;;12.20;99.90;;;;;;5040465;28;20205;-68
2023/03/31 12:32:10;;;;;;;5.57;2.92;;;12.20;99.90;;;;;;5027098;28;20212;-69
2023/03/31 12:34:44;;;;;;;5.25;2.72;;;12.10;99.90;;;;;;5041555;28;20231;-68
2023/03/31 12:37:46;;;;;;;7.22;2.58;;;12.00;99.90;;;;;;5030071;28;20205;-68
2023/03/31 12:40:22;;;;;;;4.28;2.63;;;11.90;99.90;;;;;;5035759;28;20210;-68
2023/03/31 12:43:13;;;;;;;3.85;2.90;;;12.00;99.90;;;;;;5016127;28;20212;-69
2023/03/31 12:45:48;;;;;;;5.97;2.42;;;12.00;99.90;;;;;;5044987;28;20292;-69
2023/03/31 12:48:38;;;;;;;3.15;2.10;;;12.00;99.90;;;;;;5019460;28;20224;-69
2023/03/31 12:51:20;;;;;;;3.03;2.30;;;12.10;99.90;;;;;;5040799;28;20672;-69
2023/03/31 12:54:06;;;;;;;4.25;2.20;;;12.10;99.90;;;;;;5047762;28;20247;-69
2023/03/31 12:57:05;;;;;;;5.45;2.95;;;12.20;99.90;;;;;;5044274;28;20586;-68
2023/03/31 12:59:34;;;;;;;4.15;2.80;;;12.40;99.90;;;;;;5034667;28;20320;-69
2023/03/31 13:02:21;;;;;;;4.07;2.65;;;12.40;99.90;;;;;;5001477;28;20216;-69
2023/03/31 13:04:49;;;;;;;5.75;2.78;;;12.40;99.90;;;;;;5019981;28;20221;-69